createdAt,value
2023-01-20T00:01:12.315Z,8.93
2023-01-20T00:03:40.459Z,8.38
2023-01-20T00:06:08.066Z,8.32
2023-01-20T00:08:35.031Z,9.48
2023-01-20T00:11:10.774Z,9.63
2023-01-20T00:13:38.133Z,10.13
2023-01-20T00:16:09.482Z,8.93
2023-01-20T00:18:38.431Z,10.23
2023-01-20T00:21:13.162Z,10.02
2023-01-20T00:23:41.148Z,10.20
2023-01-20T00:26:10.709Z,10.63
2023-01-20T00:28:38.167Z,9.40
2023-01-20T00:31:16.840Z,9.75
2023-01-20T00:33:44.111Z,9.73
2023-01-20T00:36:12.537Z,8.95
2023-01-20T00:38:39.414Z,8.70
2023-01-20T00:41:06.877Z,9.18
2023-01-20T00:43:33.700Z,9.48
2023-01-20T00:46:00.359Z,10.95
2023-01-20T00:48:27.195Z,9.82
2023-01-20T00:50:53.834Z,10.65
2023-01-20T00:53:20.550Z,10.15
2023-01-20T00:55:47.177Z,10.27
2023-01-20T00:58:13.798Z,9.68
2023-01-20T01:00:40.525Z,10.38
2023-01-20T01:03:07.308Z,10.55
2023-01-20T01:05:34.011Z,10.07
2023-01-20T01:08:00.660Z,10.00
2023-01-20T01:14:15.176Z,9.40
2023-01-20T01:16:41.841Z,8.63
2023-01-20T01:19:08.796Z,9.18
2023-01-20T01:21:35.466Z,9.38
2023-01-20T01:24:02.057Z,8.43
2023-01-20T01:26:28.710Z,8.52
2023-01-20T01:28:55.309Z,8.43
2023-01-20T01:31:22.135Z,9.27
2023-01-20T01:33:49.328Z,9.00
2023-01-20T01:36:17.244Z,8.23
2023-01-20T01:38:44.366Z,7.72
2023-01-20T01:41:15.215Z,7.50
2023-01-20T01:44:01.017Z,8.27
2023-01-20T01:46:27.741Z,7.03
2023-01-20T01:48:55.626Z,7.45
2023-01-20T01:51:25.932Z,7.63
2023-01-20T01:53:57.686Z,7.40
2023-01-20T01:56:27.434Z,7.13
2023-01-20T01:58:57.403Z,7.18
2023-01-20T02:01:25.520Z,7.38
2023-01-20T02:04:12.049Z,7.13
2023-01-20T02:06:46.465Z,7.93
2023-01-20T02:09:13.446Z,7.07
2023-01-20T02:11:48.294Z,7.28
2023-01-20T02:14:17.891Z,7.78
2023-01-20T02:17:21.940Z,8.13
2023-01-20T02:20:16.313Z,6.80
2023-01-20T02:22:51.885Z,7.30
2023-01-20T02:25:52.255Z,7.30
2023-01-20T02:28:47.312Z,7.63
2023-01-20T02:31:51.522Z,7.07
2023-01-20T02:34:38.818Z,6.40
2023-01-20T02:37:19.580Z,6.57
2023-01-20T02:40:11.373Z,6.95
2023-01-20T02:42:43.398Z,6.53
2023-01-20T02:45:49.592Z,7.50
2023-01-20T02:49:11.605Z,6.60
2023-01-20T02:52:01.746Z,6.20
2023-01-20T02:54:32.706Z,6.15
2023-01-20T02:57:02.333Z,7.15
2023-01-20T02:59:37.750Z,6.75
2023-01-20T03:02:09.034Z,6.68
2023-01-20T03:04:51.099Z,7.50
2023-01-20T03:07:21.222Z,7.35
2023-01-20T03:09:50.991Z,6.57
2023-01-20T03:12:26.792Z,6.55
2023-01-20T03:14:53.777Z,6.45
2023-01-20T03:17:21.871Z,7.20
2023-01-20T03:19:48.765Z,6.07
2023-01-20T03:22:16.646Z,6.53
2023-01-20T03:24:46.230Z,6.40
2023-01-20T03:27:13.621Z,6.85
2023-01-20T03:29:40.310Z,6.45
2023-01-20T03:32:09.715Z,6.88
2023-01-20T03:34:39.645Z,6.70
2023-01-20T03:37:07.375Z,6.30
2023-01-20T03:39:39.595Z,6.90
2023-01-20T03:42:14.914Z,6.13
2023-01-20T03:44:50.521Z,6.30
2023-01-20T03:47:46.965Z,6.88
2023-01-20T03:50:25.212Z,6.35
2023-01-20T03:53:06.035Z,7.20
2023-01-20T03:55:43.216Z,7.72
2023-01-20T03:58:15.001Z,7.75
2023-01-20T04:00:45.183Z,7.20
2023-01-20T04:03:18.776Z,7.78
2023-01-20T04:05:47.667Z,7.72
2023-01-20T04:08:17.332Z,7.95
2023-01-20T04:10:47.448Z,7.30
2023-01-20T04:13:15.197Z,7.63
2023-01-20T04:15:44.384Z,7.68
2023-01-20T04:18:13.222Z,8.25
2023-01-20T04:20:40.532Z,8.48
2023-01-20T04:23:12.050Z,8.57
2023-01-20T04:25:38.828Z,8.95
2023-01-20T04:28:05.421Z,8.30
2023-01-20T04:30:32.034Z,9.10
2023-01-20T04:32:58.672Z,9.23
2023-01-20T04:35:25.382Z,9.75
2023-01-20T04:37:51.984Z,9.52
2023-01-20T04:40:18.695Z,10.35
2023-01-20T04:42:45.294Z,9.45
2023-01-20T04:45:16.520Z,10.13
2023-01-20T04:47:44.099Z,10.85
2023-01-20T04:50:12.134Z,11.23
2023-01-20T04:52:38.716Z,11.95
2023-01-20T04:55:05.797Z,11.90
2023-01-20T04:57:32.705Z,11.43
2023-01-20T04:59:59.309Z,11.63
2023-01-20T05:02:25.971Z,11.43
2023-01-20T05:04:52.609Z,11.90
2023-01-20T05:07:19.167Z,12.30
2023-01-20T05:09:45.801Z,12.68
2023-01-20T05:12:12.390Z,12.40
2023-01-20T05:14:38.964Z,11.43
2023-01-20T05:17:05.603Z,13.95
2023-01-20T05:19:32.208Z,13.20
2023-01-20T05:22:00.299Z,13.57
2023-01-20T05:24:26.923Z,11.38
2023-01-20T05:26:53.593Z,12.50
2023-01-20T05:29:20.203Z,12.80
2023-01-20T05:31:46.857Z,12.82
2023-01-20T05:34:13.486Z,12.35
2023-01-20T05:36:40.062Z,11.95
2023-01-20T05:39:06.748Z,11.70
2023-01-20T05:41:33.314Z,11.40
2023-01-20T05:43:59.921Z,9.60
2023-01-20T05:46:26.555Z,11.70
2023-01-20T05:48:53.215Z,12.05
2023-01-20T05:51:19.992Z,11.80
2023-01-20T05:53:46.598Z,11.57
2023-01-20T05:56:15.836Z,10.48
2023-01-20T05:58:42.849Z,11.13
2023-01-20T06:01:12.098Z,11.57
2023-01-20T06:03:39.490Z,12.52
2023-01-20T06:06:08.929Z,11.88
2023-01-20T06:08:36.017Z,11.70
2023-01-20T06:11:02.802Z,11.63
2023-01-20T06:13:29.542Z,11.88
2023-01-20T06:15:56.642Z,12.48
2023-01-20T06:18:24.435Z,11.95
2023-01-20T06:20:51.504Z,12.15
2023-01-20T06:23:18.338Z,12.43
2023-01-20T06:25:44.941Z,11.65
2023-01-20T06:28:11.612Z,11.80
2023-01-20T06:30:38.554Z,11.38
2023-01-20T06:33:10.529Z,13.05
2023-01-20T06:35:37.753Z,11.85
2023-01-20T06:38:04.479Z,11.45
2023-01-20T06:40:31.628Z,11.63
2023-01-20T06:42:59.092Z,12.57
2023-01-20T06:45:26.432Z,11.93
2023-01-20T06:47:53.450Z,12.27
2023-01-20T06:50:20.464Z,12.95
2023-01-20T06:52:47.540Z,13.55
2023-01-20T06:55:15.026Z,13.63
2023-01-20T06:57:42.139Z,13.02
2023-01-20T07:00:09.487Z,12.32
2023-01-20T07:02:36.551Z,13.23
2023-01-20T07:05:04.547Z,13.32
2023-01-20T07:07:31.143Z,13.30
2023-01-20T07:09:57.714Z,12.75
2023-01-20T07:12:24.259Z,14.25
2023-01-20T07:14:50.941Z,14.18
2023-01-20T07:17:17.542Z,15.43
2023-01-20T07:19:44.255Z,14.50
2023-01-20T07:22:10.840Z,14.77
2023-01-20T07:24:37.640Z,14.48
2023-01-20T07:27:04.312Z,14.18
2023-01-20T07:29:30.930Z,14.90
2023-01-20T07:31:57.628Z,15.90
2023-01-20T07:34:24.399Z,15.32
2023-01-20T07:36:53.915Z,15.27
2023-01-20T07:39:21.627Z,14.82
2023-01-20T07:41:51.301Z,15.35
2023-01-20T07:44:17.939Z,15.38
2023-01-20T07:46:44.601Z,14.70
2023-01-20T07:49:12.476Z,14.77
2023-01-20T07:51:39.782Z,16.55
2023-01-20T07:54:06.723Z,15.75
2023-01-20T07:56:33.435Z,16.98
2023-01-20T07:59:00.129Z,15.30
2023-01-20T08:01:29.849Z,16.10
2023-01-20T08:03:57.850Z,16.17
2023-01-20T08:06:26.301Z,15.77
2023-01-20T08:08:53.870Z,16.08
2023-01-20T08:11:21.647Z,13.52
2023-01-20T08:13:48.901Z,14.75
2023-01-20T08:16:18.477Z,15.43
2023-01-20T08:18:46.030Z,14.30
2023-01-20T08:21:22.957Z,14.75
2023-01-20T08:23:50.278Z,13.80
2023-01-20T08:26:19.175Z,14.32
2023-01-20T08:28:45.811Z,14.43
2023-01-20T08:31:15.001Z,14.20
2023-01-20T08:33:43.260Z,15.57
2023-01-20T08:36:16.538Z,13.15
2023-01-20T08:38:44.136Z,14.52
2023-01-20T08:41:14.233Z,14.45
2023-01-20T08:43:41.926Z,13.35
2023-01-20T08:46:12.150Z,12.95
2023-01-20T08:48:40.420Z,14.18
2023-01-20T08:51:10.094Z,13.38
2023-01-20T08:53:36.771Z,12.80
2023-01-20T08:56:04.009Z,13.10
2023-01-20T08:58:31.689Z,14.30
2023-01-20T09:00:58.438Z,14.57
2023-01-20T09:03:25.363Z,13.15
2023-01-20T09:05:52.322Z,14.38
2023-01-20T09:08:19.604Z,13.65
2023-01-20T09:10:47.045Z,12.00
2023-01-20T09:13:14.083Z,14.27
2023-01-20T09:15:41.215Z,12.73
2023-01-20T09:18:08.306Z,13.07
2023-01-20T09:20:35.436Z,14.25
2023-01-20T09:23:03.067Z,13.82
2023-01-20T09:25:29.823Z,13.32
2023-01-20T09:27:59.654Z,12.23
2023-01-20T09:30:26.303Z,12.32
2023-01-20T09:32:55.249Z,12.38
2023-01-20T09:35:22.065Z,13.63
2023-01-20T09:38:07.451Z,11.82
2023-01-20T09:41:12.002Z,11.48
2023-01-20T09:47:17.570Z,11.48
2023-01-20T09:50:09.931Z,11.00
2023-01-20T09:52:55.871Z,11.30
2023-01-20T09:55:46.681Z,11.82
2023-01-20T09:58:52.921Z,11.30
2023-01-20T10:01:30.907Z,10.57
2023-01-20T10:04:10.856Z,11.75
2023-01-20T10:06:42.507Z,9.30
2023-01-20T10:09:11.863Z,9.85
2023-01-20T10:11:42.386Z,10.63
2023-01-20T10:14:21.300Z,9.77
2023-01-20T10:16:54.064Z,9.82
2023-01-20T10:19:29.308Z,10.17
2023-01-20T10:22:22.298Z,9.80
2023-01-20T10:25:09.052Z,10.55
2023-01-20T10:27:40.883Z,10.05
2023-01-20T10:30:15.016Z,10.85
2023-01-20T10:32:52.331Z,10.45
2023-01-20T10:35:25.961Z,10.57
2023-01-20T10:37:53.572Z,8.65
2023-01-20T10:40:38.991Z,6.72
2023-01-20T10:43:12.678Z,7.63
2023-01-20T10:48:24.894Z,7.50
2023-01-20T10:51:03.523Z,7.75
2023-01-20T10:53:33.427Z,7.03
2023-01-20T10:56:24.025Z,6.85
2023-01-20T10:58:50.652Z,7.10
2023-01-20T11:01:21.524Z,6.72
2023-01-20T11:03:49.341Z,6.18
2023-01-20T11:06:19.526Z,5.25
2023-01-20T11:08:46.694Z,6.25
2023-01-20T11:11:15.800Z,6.28
2023-01-20T11:13:42.848Z,6.80
2023-01-20T11:16:29.014Z,6.07
2023-01-20T11:18:57.844Z,5.82
2023-01-20T11:21:25.620Z,5.90
2023-01-20T11:23:55.592Z,5.43
2023-01-20T11:26:28.428Z,6.10
2023-01-20T11:28:55.646Z,6.25
2023-01-20T11:31:33.525Z,7.75
2023-01-20T11:34:01.884Z,8.55
2023-01-20T11:36:29.087Z,8.68
2023-01-20T11:38:56.991Z,7.82
2023-01-20T11:41:31.490Z,8.90
2023-01-20T11:43:59.517Z,9.10
2023-01-20T11:46:29.765Z,9.10
2023-01-20T11:49:13.766Z,9.20
2023-01-20T11:54:09.030Z,9.25
2023-01-20T11:56:40.278Z,10.32
2023-01-20T11:59:17.602Z,9.65
2023-01-20T12:02:01.604Z,10.82
2023-01-20T12:04:49.067Z,10.43
2023-01-20T12:07:21.727Z,10.35
2023-01-20T12:09:51.747Z,10.70
2023-01-20T12:12:21.818Z,11.55
2023-01-20T12:14:54.736Z,12.63
2023-01-20T12:17:21.807Z,13.77
2023-01-20T12:20:09.301Z,12.07
2023-01-20T12:22:43.875Z,13.00
2023-01-20T12:25:19.946Z,12.02
2023-01-20T12:27:56.206Z,12.48
2023-01-20T12:30:41.952Z,13.38
2023-01-20T12:33:16.716Z,13.88
2023-01-20T12:35:47.591Z,13.85
2023-01-20T12:38:18.961Z,14.02
2023-01-20T12:40:49.883Z,15.13
2023-01-20T12:43:16.919Z,14.38
2023-01-20T12:45:50.738Z,18.02
2023-01-20T12:48:20.574Z,15.75
2023-01-20T12:51:02.585Z,15.63
2023-01-20T12:53:41.722Z,18.17
2023-01-20T12:56:11.620Z,18.85
2023-01-20T12:58:39.805Z,18.85
2023-01-20T13:01:33.308Z,18.45
2023-01-20T13:04:00.504Z,19.15
2023-01-20T13:06:36.700Z,17.00
2023-01-20T13:09:25.305Z,19.40
2023-01-20T13:12:07.516Z,20.40
2023-01-20T13:14:41.300Z,21.38
2023-01-20T13:17:26.698Z,18.55
2023-01-20T13:19:57.227Z,18.48
2023-01-20T13:22:25.635Z,21.02
2023-01-20T13:24:57.346Z,21.50
2023-01-20T13:27:36.033Z,21.08
2023-01-20T13:30:05.361Z,22.58
2023-01-20T13:32:45.085Z,23.45
2023-01-20T13:35:33.279Z,22.92
2023-01-20T13:38:01.451Z,21.92
2023-01-20T13:40:33.931Z,22.25
2023-01-20T13:43:00.607Z,21.17
2023-01-20T13:45:27.706Z,22.98
2023-01-20T13:48:02.417Z,23.88
2023-01-20T13:50:33.148Z,20.88
2023-01-20T13:53:23.976Z,24.13
2023-01-20T13:55:58.880Z,23.13
2023-01-20T13:58:34.150Z,23.30
2023-01-20T14:01:03.629Z,23.75
2023-01-20T14:03:35.042Z,22.75
2023-01-20T14:06:07.179Z,23.10
2023-01-20T14:08:48.417Z,21.00
2023-01-20T14:11:23.130Z,22.70
2023-01-20T14:14:07.299Z,21.75
2023-01-20T14:16:36.736Z,22.45
2023-01-20T14:19:36.172Z,23.35
2023-01-20T14:22:16.662Z,22.48
2023-01-20T14:24:45.123Z,22.00
2023-01-20T14:27:21.509Z,21.75
2023-01-20T14:29:50.227Z,24.25
2023-01-20T14:32:25.685Z,23.85
2023-01-20T14:34:56.117Z,22.27
2023-01-20T14:37:26.052Z,24.05
2023-01-20T14:39:54.906Z,24.27
2023-01-20T14:42:22.731Z,24.63
2023-01-20T14:44:50.803Z,25.10
2023-01-20T14:47:19.210Z,24.85
2023-01-20T14:49:47.636Z,24.60
2023-01-20T14:52:19.170Z,25.23
2023-01-20T14:54:46.482Z,25.00
2023-01-20T14:57:32.297Z,25.08
2023-01-20T15:00:21.315Z,22.67
2023-01-20T15:03:01.289Z,25.92
2023-01-20T15:05:37.853Z,24.65
2023-01-20T15:08:29.798Z,25.67
2023-01-20T15:11:18.362Z,25.85
2023-01-20T15:14:00.887Z,25.02
2023-01-20T15:16:38.741Z,26.50
2023-01-20T15:19:15.405Z,26.15
2023-01-20T15:21:46.587Z,25.85
2023-01-20T15:24:15.808Z,30.42
2023-01-20T15:26:42.876Z,27.25
2023-01-20T15:29:27.900Z,25.52
2023-01-20T15:31:56.088Z,25.20
2023-01-20T15:34:23.502Z,25.25
2023-01-20T15:36:51.649Z,26.50
2023-01-20T15:39:20.119Z,25.52
2023-01-20T15:41:48.638Z,25.77
2023-01-20T15:44:15.873Z,26.38
2023-01-20T15:46:42.924Z,25.27
2023-01-20T15:49:14.460Z,25.05
2023-01-20T15:51:42.554Z,25.95
2023-01-20T15:54:10.025Z,24.45
2023-01-20T15:56:38.799Z,25.17
2023-01-20T15:59:16.150Z,25.38
2023-01-20T16:01:46.888Z,24.95
2023-01-20T16:04:13.975Z,24.30
2023-01-20T16:06:41.044Z,24.83
2023-01-20T16:09:16.391Z,25.95
2023-01-20T16:11:43.450Z,26.48
2023-01-20T16:14:10.459Z,27.02
2023-01-20T16:16:37.518Z,28.33
2023-01-20T16:19:04.783Z,28.95
2023-01-20T16:21:31.827Z,28.77
2023-01-20T16:23:58.914Z,30.33
2023-01-20T16:26:27.030Z,28.45
2023-01-20T16:28:55.076Z,29.05
2023-01-20T16:31:22.747Z,30.00
2023-01-20T16:33:49.981Z,28.10
2023-01-20T16:36:18.274Z,28.85
2023-01-20T16:38:45.351Z,30.27
2023-01-20T16:41:15.244Z,27.15
2023-01-20T16:43:42.644Z,25.60
2023-01-20T16:46:20.379Z,26.05
2023-01-20T16:48:47.439Z,27.08
2023-01-20T16:51:15.231Z,26.83
2023-01-20T16:53:42.645Z,29.15
2023-01-20T16:56:22.948Z,26.85
2023-01-20T16:58:51.640Z,27.67
2023-01-20T17:01:24.878Z,28.30
2023-01-20T17:03:52.814Z,26.80
2023-01-20T17:06:21.261Z,27.10
2023-01-20T17:08:49.828Z,28.63
2023-01-20T17:11:20.421Z,30.73
2023-01-20T17:13:47.479Z,31.98
2023-01-20T17:16:14.801Z,31.45
2023-01-20T17:18:45.017Z,30.20
2023-01-20T17:21:12.551Z,28.90
2023-01-20T17:23:40.075Z,31.10
2023-01-20T17:26:08.022Z,30.45
2023-01-20T17:28:35.349Z,29.50
2023-01-20T17:31:02.880Z,28.27
2023-01-20T17:33:30.233Z,29.95
2023-01-20T17:36:01.512Z,30.80
2023-01-20T17:38:29.397Z,27.95
2023-01-20T17:41:01.122Z,30.00
2023-01-20T17:43:37.963Z,31.33
2023-01-20T17:46:13.886Z,30.60
2023-01-20T17:48:41.112Z,29.20
2023-01-20T17:51:14.169Z,31.85
2023-01-20T17:53:41.469Z,30.52
2023-01-20T17:56:12.645Z,31.77
2023-01-20T17:58:40.788Z,32.30
2023-01-20T18:01:15.059Z,32.80
2023-01-20T18:03:43.173Z,33.85
2023-01-20T18:06:11.681Z,36.10
2023-01-20T18:08:38.743Z,34.50
2023-01-20T18:11:06.896Z,35.05
2023-01-20T18:13:35.206Z,32.10
2023-01-20T18:16:07.035Z,32.67
2023-01-20T18:18:34.337Z,33.85
2023-01-20T18:21:08.237Z,31.95
2023-01-20T18:23:36.893Z,31.35
2023-01-20T18:26:05.794Z,30.60
2023-01-20T18:28:33.638Z,31.40
2023-01-20T18:31:08.317Z,30.75
2023-01-20T18:33:40.915Z,31.20
2023-01-20T18:36:08.846Z,30.50
2023-01-20T18:38:36.307Z,30.67
2023-01-20T18:41:03.704Z,30.35
2023-01-20T18:43:31.194Z,31.15
2023-01-20T18:45:58.294Z,28.60
2023-01-20T18:48:25.420Z,29.63
2023-01-20T18:50:53.035Z,26.42
2023-01-20T18:53:20.118Z,26.17
2023-01-20T18:55:47.805Z,28.38
2023-01-20T18:58:16.512Z,27.83
2023-01-20T19:00:43.771Z,27.67
2023-01-20T19:03:10.833Z,28.08
2023-01-20T19:05:37.845Z,27.02
2023-01-20T19:08:05.146Z,26.60
2023-01-20T19:10:32.214Z,26.15
2023-01-20T19:12:59.357Z,25.90
2023-01-20T19:15:26.463Z,25.17
2023-01-20T19:17:53.621Z,26.98
2023-01-20T19:20:20.664Z,25.40
2023-01-20T19:22:47.696Z,24.92
2023-01-20T19:25:14.774Z,26.70
2023-01-20T19:27:41.816Z,27.35
2023-01-20T19:30:10.143Z,27.02
2023-01-20T19:32:40.998Z,27.02
2023-01-20T19:35:08.603Z,27.25
2023-01-20T19:37:35.217Z,26.70
2023-01-20T19:40:01.818Z,25.33
2023-01-20T19:42:29.776Z,28.67
2023-01-20T19:44:56.565Z,26.48
2023-01-20T19:47:23.223Z,27.20
2023-01-20T19:49:49.871Z,28.15
2023-01-20T19:52:16.563Z,27.10
2023-01-20T19:54:43.185Z,26.75
2023-01-20T19:57:09.803Z,27.02
2023-01-20T19:59:40.609Z,27.60
2023-01-20T20:02:10.586Z,29.25
2023-01-20T20:04:37.189Z,27.25
2023-01-20T20:07:03.826Z,26.45
2023-01-20T20:09:30.521Z,27.90
2023-01-20T20:11:57.731Z,25.45
2023-01-20T20:14:24.453Z,26.90
2023-01-20T20:16:51.053Z,25.40
2023-01-20T20:19:19.179Z,26.65
2023-01-20T20:21:45.861Z,27.33
2023-01-20T20:24:13.772Z,25.60
2023-01-20T20:26:40.994Z,23.98
2023-01-20T20:29:08.865Z,25.15
2023-01-20T20:31:38.216Z,27.92
2023-01-20T20:34:06.042Z,26.30
2023-01-20T20:36:33.584Z,26.52
2023-01-20T20:39:01.475Z,24.70
2023-01-20T20:41:31.050Z,26.10
2023-01-20T20:43:58.848Z,25.58
2023-01-20T20:46:26.434Z,26.38
2023-01-20T20:48:59.173Z,25.08
2023-01-20T20:51:26.494Z,25.20
2023-01-20T20:53:55.068Z,24.30
2023-01-20T20:56:22.990Z,27.00
2023-01-20T20:59:00.971Z,27.00
2023-01-20T21:01:30.239Z,25.95
2023-01-20T21:03:57.863Z,26.77
2023-01-20T21:06:25.399Z,25.52
2023-01-20T21:08:53.008Z,25.98
2023-01-20T21:11:20.200Z,26.23
2023-01-20T21:13:49.030Z,26.33
2023-01-20T21:16:16.997Z,26.55
2023-01-20T21:18:44.226Z,26.08
2023-01-20T21:21:13.050Z,26.52
2023-01-20T21:23:43.356Z,27.38
2023-01-20T21:26:12.487Z,27.17
2023-01-20T21:28:40.563Z,25.98
2023-01-20T21:31:09.233Z,26.67
2023-01-20T21:33:38.317Z,27.52
2023-01-20T21:36:07.046Z,26.20
2023-01-20T21:38:34.149Z,24.67
2023-01-20T21:41:09.732Z,27.63
2023-01-20T21:43:56.355Z,26.45
2023-01-20T21:46:23.980Z,26.15
2023-01-20T21:49:09.811Z,27.05
2023-01-20T21:51:55.684Z,28.85
2023-01-20T21:54:22.833Z,27.77
2023-01-20T21:56:51.343Z,27.20
2023-01-20T21:59:18.093Z,27.10
2023-01-20T22:01:44.791Z,27.58
2023-01-20T22:04:11.498Z,27.65
2023-01-20T22:06:38.113Z,27.00
2023-01-20T22:09:04.751Z,27.40
2023-01-20T22:11:31.406Z,28.42
2023-01-20T22:13:58.029Z,29.13
2023-01-20T22:16:25.542Z,28.05
2023-01-20T22:18:53.541Z,28.58
2023-01-20T22:21:21.364Z,27.50
2023-01-20T22:23:48.477Z,27.17
2023-01-20T22:26:15.224Z,29.10
2023-01-20T22:28:43.153Z,28.08
2023-01-20T22:31:19.880Z,27.95
2023-01-20T22:33:54.384Z,28.08
2023-01-20T22:36:22.544Z,26.45
2023-01-20T22:38:50.696Z,27.48
2023-01-20T22:41:18.103Z,28.45
2023-01-20T22:43:45.085Z,26.95
2023-01-20T22:46:14.094Z,25.42
2023-01-20T22:48:41.602Z,27.38
2023-01-20T22:51:17.212Z,26.17
2023-01-20T22:53:44.430Z,27.20
2023-01-20T22:56:20.034Z,26.27
2023-01-20T22:58:47.157Z,28.35
2023-01-20T23:01:25.637Z,27.92
2023-01-20T23:04:00.833Z,28.23
2023-01-20T23:06:29.745Z,27.88
2023-01-20T23:08:56.322Z,27.92
2023-01-20T23:11:23.362Z,27.77
2023-01-20T23:13:50.933Z,26.90
2023-01-20T23:16:21.296Z,28.40
2023-01-20T23:18:48.454Z,28.38
2023-01-20T23:21:15.561Z,27.17
2023-01-20T23:23:42.256Z,26.45
2023-01-20T23:26:15.136Z,27.83
2023-01-20T23:28:43.143Z,28.95
2023-01-20T23:31:11.533Z,28.38
2023-01-20T23:33:38.986Z,28.35
2023-01-20T23:36:10.408Z,28.17
2023-01-20T23:38:37.003Z,27.00
2023-01-20T23:41:04.217Z,28.48
2023-01-20T23:43:31.447Z,29.17
2023-01-20T23:46:00.622Z,29.33
2023-01-20T23:48:27.732Z,28.98
2023-01-20T23:50:56.408Z,29.35
2023-01-20T23:53:23.292Z,30.92
2023-01-20T23:55:49.927Z,29.17
2023-01-20T23:58:16.609Z,29.70
